createdAt,value
2018-01-29T00:00:34.017Z,0.80
2018-01-29T00:03:02.031Z,1.05
2018-01-29T00:05:30.110Z,0.88
2018-01-29T00:07:58.182Z,0.93
2018-01-29T00:10:27.259Z,0.75
2018-01-29T00:12:55.333Z,0.87
2018-01-29T00:15:23.342Z,1.90
2018-01-29T00:17:51.423Z,1.05
2018-01-29T00:20:19.514Z,1.00
2018-01-29T00:22:47.565Z,0.93
2018-01-29T00:25:15.613Z,1.00
2018-01-29T00:27:43.691Z,0.73
2018-01-29T00:30:11.784Z,1.00
2018-01-29T00:32:39.829Z,1.30
2018-01-29T00:35:07.901Z,1.17
2018-01-29T00:37:36.003Z,1.30
2018-01-29T00:40:04.047Z,1.30
2018-01-29T00:42:32.109Z,1.10
2018-01-29T00:45:00.129Z,1.05
2018-01-29T00:47:28.169Z,1.10
2018-01-29T00:49:57.232Z,0.70
2018-01-29T00:52:25.309Z,0.90
2018-01-29T00:54:53.340Z,1.08
2018-01-29T00:57:21.422Z,1.48
2018-01-29T00:59:49.523Z,1.45
2018-01-29T01:02:17.591Z,1.40
2018-01-29T01:04:45.697Z,1.50
2018-01-29T01:07:13.730Z,1.60
2018-01-29T01:09:41.755Z,1.20
2018-01-29T01:12:09.761Z,1.00
2018-01-29T01:14:37.844Z,1.57
2018-01-29T01:17:05.895Z,1.40
2018-01-29T01:19:34.027Z,1.70
2018-01-29T01:22:03.188Z,1.30
2018-01-29T01:24:31.278Z,1.90
2018-01-29T01:26:59.327Z,1.20
2018-01-29T01:29:27.378Z,1.50
2018-01-29T01:31:55.471Z,1.23
2018-01-29T01:34:23.549Z,1.70
2018-01-29T01:36:51.572Z,1.50
2018-01-29T01:39:19.606Z,2.12
2018-01-29T01:41:47.655Z,1.58
2018-01-29T01:44:15.731Z,2.05
2018-01-29T01:46:43.797Z,1.62
2018-01-29T01:49:12.827Z,1.42
2018-01-29T01:51:40.881Z,1.30
2018-01-29T01:54:08.954Z,1.30
2018-01-29T01:56:37.039Z,1.27
2018-01-29T01:59:05.077Z,1.58
2018-01-29T02:01:33.158Z,1.45
2018-01-29T02:04:01.595Z,1.40
2018-01-29T02:06:29.651Z,1.80
2018-01-29T02:08:58.788Z,1.50
2018-01-29T02:11:26.882Z,1.40
2018-01-29T02:13:54.923Z,1.60
2018-01-29T02:16:22.995Z,1.30
2018-01-29T02:18:51.067Z,1.10
2018-01-29T02:21:19.167Z,1.50
2018-01-29T02:23:47.163Z,1.12
2018-01-29T02:26:15.240Z,0.90
2018-01-29T02:28:43.298Z,1.00
2018-01-29T02:31:11.383Z,1.45
2018-01-29T02:33:39.437Z,0.93
2018-01-29T02:36:07.490Z,1.23
2018-01-29T02:38:35.545Z,1.07
2018-01-29T02:41:03.641Z,0.93
2018-01-29T02:43:31.764Z,1.10
2018-01-29T02:45:59.846Z,1.00
2018-01-29T02:48:27.926Z,1.35
2018-01-29T02:50:55.961Z,1.83
2018-01-29T02:53:24.054Z,1.20
2018-01-29T02:55:52.135Z,1.48
2018-01-29T02:58:21.181Z,1.02
2018-01-29T03:00:49.241Z,1.20
2018-01-29T03:03:17.288Z,1.08
2018-01-29T03:05:45.423Z,1.55
2018-01-29T03:08:13.468Z,0.90
2018-01-29T03:10:41.543Z,1.17
2018-01-29T03:13:09.578Z,1.20
2018-01-29T03:15:37.616Z,1.23
2018-01-29T03:18:05.730Z,1.17
2018-01-29T03:20:34.841Z,0.70
2018-01-29T03:23:02.923Z,0.70
2018-01-29T03:25:30.999Z,0.70
2018-01-29T03:27:59.122Z,0.80
2018-01-29T03:30:27.136Z,0.80
2018-01-29T03:32:55.149Z,0.70
2018-01-29T03:35:23.207Z,0.50
2018-01-29T03:37:51.283Z,0.90
2018-01-29T03:40:19.346Z,0.60
2018-01-29T03:42:47.369Z,0.93
2018-01-29T03:45:15.400Z,0.70
2018-01-29T03:47:43.480Z,0.70
2018-01-29T03:50:11.531Z,1.05
2018-01-29T03:52:39.602Z,0.65
2018-01-29T03:55:07.693Z,0.93
2018-01-29T03:57:35.756Z,0.70
2018-01-29T04:00:03.790Z,0.90
2018-01-29T04:02:31.839Z,0.95
2018-01-29T04:04:59.905Z,1.10
2018-01-29T04:07:27.925Z,1.05
2018-01-29T04:09:55.985Z,0.95
2018-01-29T04:12:24.021Z,1.40
2018-01-29T04:14:52.093Z,1.35
2018-01-29T04:17:20.203Z,1.75
2018-01-29T04:19:48.259Z,1.27
2018-01-29T04:22:16.249Z,1.77
2018-01-29T04:24:44.273Z,1.83
2018-01-29T04:27:12.327Z,1.35
2018-01-29T04:29:40.480Z,1.87
2018-01-29T04:32:08.535Z,1.20
2018-01-29T04:34:36.572Z,1.20
2018-01-29T04:37:04.616Z,1.40
2018-01-29T04:39:32.696Z,1.15
2018-01-29T04:42:00.781Z,1.12
2018-01-29T04:44:28.832Z,1.58
2018-01-29T04:46:56.919Z,1.60
2018-01-29T04:49:24.962Z,1.25
2018-01-29T04:51:53.010Z,1.90
2018-01-29T04:54:21.063Z,1.60
2018-01-29T04:56:49.133Z,1.48
2018-01-29T04:59:17.161Z,1.62
2018-01-29T05:01:45.227Z,1.90
2018-01-29T05:04:13.331Z,1.85
2018-01-29T05:06:41.397Z,1.83
2018-01-29T05:09:09.475Z,1.20
2018-01-29T05:11:37.553Z,1.23
2018-01-29T05:14:05.619Z,1.60
2018-01-29T05:16:33.646Z,1.23
2018-01-29T05:19:01.696Z,1.33
2018-01-29T05:21:29.806Z,1.90
2018-01-29T05:23:57.923Z,1.85
2018-01-29T05:26:25.990Z,1.20
2018-01-29T05:28:54.083Z,1.35
2018-01-29T05:31:22.133Z,1.30
2018-01-29T05:33:50.211Z,1.70
2018-01-29T05:36:22.301Z,1.97
2018-01-29T05:38:50.361Z,1.75
2018-01-29T05:41:18.423Z,2.00
2018-01-29T05:43:46.457Z,1.70
2018-01-29T05:46:14.525Z,1.40
2018-01-29T05:48:42.635Z,1.80
2018-01-29T05:51:10.698Z,1.40
2018-01-29T05:53:39.833Z,1.77
2018-01-29T05:56:07.894Z,1.30
2018-01-29T05:58:35.925Z,1.40
2018-01-29T06:01:04.036Z,1.77
2018-01-29T06:03:32.090Z,1.50
2018-01-29T06:06:00.109Z,1.40
2018-01-29T06:08:28.189Z,1.58
2018-01-29T06:10:56.245Z,1.37
2018-01-29T06:13:24.265Z,1.30
2018-01-29T06:15:52.330Z,1.23
2018-01-29T06:18:20.426Z,1.37
2018-01-29T06:20:48.461Z,1.37
2018-01-29T06:23:16.551Z,1.70
2018-01-29T06:25:44.622Z,1.20
2018-01-29T06:28:12.678Z,1.40
2018-01-29T06:30:40.761Z,1.30
2018-01-29T06:33:08.828Z,1.30
2018-01-29T06:35:36.850Z,1.12
2018-01-29T06:38:05.013Z,1.15
2018-01-29T06:40:33.090Z,1.53
2018-01-29T06:43:01.199Z,1.17
2018-01-29T06:45:29.238Z,1.20
2018-01-29T06:47:57.309Z,1.60
2018-01-29T06:50:26.563Z,1.45
2018-01-29T06:52:54.925Z,1.50
2018-01-29T06:55:22.989Z,1.40
2018-01-29T06:57:51.013Z,1.10
2018-01-29T07:00:19.040Z,1.27
2018-01-29T07:02:48.103Z,1.90
2018-01-29T07:05:16.153Z,1.80
2018-01-29T07:07:44.175Z,1.33
2018-01-29T07:10:12.221Z,1.27
2018-01-29T07:12:40.263Z,1.33
2018-01-29T07:15:08.373Z,1.40
2018-01-29T07:17:36.548Z,1.27
2018-01-29T07:20:04.658Z,1.37
2018-01-29T07:22:32.863Z,1.50
2018-01-29T07:25:00.929Z,1.17
2018-01-29T07:27:29.029Z,1.20
2018-01-29T07:29:57.074Z,1.20
2018-01-29T07:32:25.121Z,1.37
2018-01-29T07:34:53.182Z,1.67
2018-01-29T07:37:21.278Z,1.80
2018-01-29T07:39:49.339Z,1.65
2018-01-29T07:42:17.384Z,1.60
2018-01-29T07:44:45.429Z,1.30
2018-01-29T07:47:13.475Z,1.43
2018-01-29T07:49:41.509Z,1.60
2018-01-29T07:52:09.603Z,1.27
2018-01-29T07:54:37.679Z,1.10
2018-01-29T07:57:05.722Z,0.90
2018-01-29T07:59:33.806Z,1.10
2018-01-29T08:02:01.926Z,1.30
2018-01-29T08:04:30.023Z,0.90
2018-01-29T08:06:58.073Z,1.40
2018-01-29T08:09:26.097Z,1.40
2018-01-29T08:11:54.151Z,1.63
2018-01-29T08:14:22.217Z,1.60
2018-01-29T08:16:50.302Z,1.53
2018-01-29T08:19:18.322Z,1.50
2018-01-29T08:21:46.361Z,1.60
2018-01-29T08:24:14.733Z,1.73
2018-01-29T08:26:42.752Z,1.60
2018-01-29T08:29:10.813Z,1.33
2018-01-29T08:31:38.890Z,2.10
2018-01-29T08:34:06.995Z,1.20
2018-01-29T08:36:35.103Z,2.00
2018-01-29T08:39:03.206Z,2.10
2018-01-29T08:41:31.225Z,1.37
2018-01-29T08:43:59.338Z,1.93
2018-01-29T08:46:27.383Z,1.40
2018-01-29T08:48:55.517Z,2.07
2018-01-29T08:51:23.595Z,1.40
2018-01-29T08:53:51.714Z,2.27
2018-01-29T08:56:19.750Z,3.27
2018-01-29T08:58:48.881Z,2.17
2018-01-29T09:01:16.931Z,1.67
2018-01-29T09:03:44.982Z,2.13
2018-01-29T09:06:13.018Z,2.03
2018-01-29T09:08:41.056Z,2.03
2018-01-29T09:11:09.085Z,1.73
2018-01-29T09:13:37.148Z,2.30
2018-01-29T09:16:05.225Z,1.90
2018-01-29T09:18:33.284Z,2.53
2018-01-29T09:21:01.375Z,2.07
2018-01-29T09:23:29.402Z,1.57
2018-01-29T09:25:57.435Z,2.00
2018-01-29T09:28:25.516Z,2.10
2018-01-29T09:30:53.560Z,2.33
2018-01-29T09:33:21.589Z,2.10
2018-01-29T09:35:49.619Z,2.37
2018-01-29T09:38:17.692Z,2.30
2018-01-29T09:40:45.797Z,2.73
2018-01-29T09:43:13.903Z,2.50
2018-01-29T09:45:41.917Z,2.63
2018-01-29T09:48:09.958Z,2.47
2018-01-29T09:50:38.072Z,2.60
2018-01-29T09:53:06.097Z,2.60
2018-01-29T09:55:34.163Z,1.87
2018-01-29T09:58:02.221Z,3.50
2018-01-29T10:00:30.295Z,2.50
2018-01-29T10:02:58.420Z,2.37
2018-01-29T10:05:26.487Z,2.50
2018-01-29T10:07:54.560Z,2.90
2018-01-29T10:10:22.631Z,2.60
2018-01-29T10:12:50.653Z,3.30
2018-01-29T10:15:18.684Z,2.90
2018-01-29T10:17:46.768Z,2.97
2018-01-29T10:20:14.837Z,2.83
2018-01-29T10:22:42.869Z,3.60
2018-01-29T10:25:10.935Z,3.20
2018-01-29T10:27:39.016Z,2.90
2018-01-29T10:30:07.062Z,2.23
2018-01-29T10:32:35.141Z,2.83
2018-01-29T10:35:03.154Z,2.60
2018-01-29T10:37:31.221Z,2.10
2018-01-29T10:39:59.292Z,2.40
2018-01-29T10:42:27.320Z,3.50
2018-01-29T10:44:55.408Z,2.20
2018-01-29T10:47:23.472Z,2.10
2018-01-29T10:49:51.516Z,2.40
2018-01-29T10:52:19.551Z,1.53
2018-01-29T10:54:47.651Z,3.07
2018-01-29T10:57:15.704Z,1.73
2018-01-29T10:59:43.763Z,2.20
2018-01-29T11:02:11.829Z,2.17
2018-01-29T11:04:40.906Z,2.20
2018-01-29T11:07:09.002Z,2.70
2018-01-29T11:09:37.062Z,2.03
2018-01-29T11:12:05.136Z,1.90
2018-01-29T11:14:33.186Z,1.87
2018-01-29T11:17:01.283Z,1.70
2018-01-29T11:19:29.338Z,2.27
2018-01-29T11:21:58.424Z,3.30
2018-01-29T11:24:26.502Z,3.23
2018-01-29T11:26:54.566Z,2.97
2018-01-29T11:29:22.678Z,3.10
2018-01-29T11:31:50.755Z,3.40
2018-01-29T11:34:18.811Z,2.17
2018-01-29T11:36:46.831Z,3.20
2018-01-29T11:39:14.903Z,3.03
2018-01-29T11:41:42.965Z,3.43
2018-01-29T11:44:11.038Z,3.60
2018-01-29T11:46:39.089Z,3.70
2018-01-29T11:49:07.134Z,2.60
2018-01-29T11:51:35.218Z,1.97
2018-01-29T11:54:03.321Z,1.20
2018-01-29T11:56:31.350Z,1.93
2018-01-29T11:58:59.392Z,2.20
2018-01-29T12:01:27.488Z,1.50
2018-01-29T12:03:55.533Z,1.30
2018-01-29T12:06:23.597Z,1.23
2018-01-29T12:08:51.675Z,1.47
2018-01-29T12:11:19.726Z,1.87
2018-01-29T12:13:47.774Z,2.90
2018-01-29T12:16:15.832Z,2.43
2018-01-29T12:18:43.942Z,2.73
2018-01-29T12:21:11.987Z,3.13
2018-01-29T12:23:40.071Z,1.27
2018-01-29T12:26:08.165Z,1.73
2018-01-29T12:28:36.173Z,1.20
2018-01-29T12:31:04.411Z,1.03
2018-01-29T12:33:32.476Z,1.10
2018-01-29T12:36:01.401Z,1.10
2018-01-29T12:38:29.444Z,1.37
2018-01-29T12:40:57.535Z,0.60
2018-01-29T12:43:25.605Z,1.00
2018-01-29T12:45:53.671Z,0.77
2018-01-29T12:48:21.750Z,0.50
2018-01-29T12:50:49.780Z,0.70
2018-01-29T12:53:17.819Z,0.80
2018-01-29T12:55:45.880Z,0.80
2018-01-29T12:58:13.960Z,0.93
2018-01-29T13:00:42.002Z,1.30
2018-01-29T13:03:10.036Z,1.17
2018-01-29T13:05:38.084Z,0.93
2018-01-29T13:08:06.212Z,0.70
2018-01-29T13:10:34.258Z,1.27
2018-01-29T13:13:02.285Z,0.80
2018-01-29T13:15:30.310Z,0.70
2018-01-29T13:17:58.367Z,0.60
2018-01-29T13:20:26.431Z,0.87
2018-01-29T13:22:54.482Z,0.90
2018-01-29T13:25:22.509Z,1.00
2018-01-29T13:27:50.512Z,0.90
2018-01-29T13:30:18.541Z,0.90
2018-01-29T13:32:46.622Z,1.13
2018-01-29T13:35:14.678Z,1.20
2018-01-29T13:37:43.885Z,1.23
2018-01-29T13:40:11.937Z,1.60
2018-01-29T13:42:39.992Z,1.40
2018-01-29T13:45:08.025Z,1.50
2018-01-29T13:47:36.485Z,1.97
2018-01-29T13:50:04.724Z,1.57
2018-01-29T13:52:32.819Z,1.30
2018-01-29T13:55:00.889Z,1.33
2018-01-29T13:57:30.226Z,1.27
2018-01-29T13:59:58.383Z,1.50
2018-01-29T14:02:26.512Z,1.97
2018-01-29T14:04:54.500Z,2.00
2018-01-29T14:07:22.555Z,1.70
2018-01-29T14:09:50.618Z,1.63
2018-01-29T14:12:18.681Z,1.50
2018-01-29T14:14:46.722Z,1.57
2018-01-29T14:17:14.763Z,1.70
2018-01-29T14:19:42.871Z,1.60
2018-01-29T14:22:10.874Z,1.80
2018-01-29T14:24:38.955Z,1.87
2018-01-29T14:27:07.021Z,1.60
2018-01-29T14:29:35.101Z,2.07
2018-01-29T14:32:03.219Z,1.83
2018-01-29T14:34:31.239Z,1.80
2018-01-29T14:36:59.299Z,2.33
2018-01-29T14:39:27.361Z,1.90
2018-01-29T14:41:55.430Z,1.93
2018-01-29T14:44:23.499Z,2.50
2018-01-29T14:46:51.551Z,2.00
2018-01-29T14:49:19.631Z,2.00
2018-01-29T14:51:47.681Z,2.37
2018-01-29T14:54:15.731Z,1.70
2018-01-29T14:56:43.769Z,2.73
2018-01-29T14:59:11.842Z,2.30
2018-01-29T15:01:39.946Z,1.97
2018-01-29T15:04:08.039Z,2.17
2018-01-29T15:06:36.082Z,1.50
2018-01-29T15:09:04.167Z,1.60
2018-01-29T15:11:32.258Z,1.70
2018-01-29T15:14:00.331Z,1.87
2018-01-29T15:16:28.391Z,1.63
2018-01-29T15:18:56.437Z,1.90
2018-01-29T15:21:24.484Z,1.57
2018-01-29T15:23:52.571Z,1.50
2018-01-29T15:26:20.639Z,1.90
2018-01-29T15:28:48.667Z,1.73
2018-01-29T15:31:16.785Z,1.20
2018-01-29T15:33:44.860Z,1.77
2018-01-29T15:36:12.910Z,1.90
2018-01-29T15:38:41.035Z,1.43
2018-01-29T15:41:09.193Z,1.50
2018-01-29T15:43:37.300Z,1.30
2018-01-29T15:46:05.429Z,1.50
2018-01-29T15:48:33.487Z,1.37
2018-01-29T15:51:01.565Z,1.30
2018-01-29T15:53:29.648Z,1.37
2018-01-29T15:55:57.661Z,1.20
2018-01-29T15:58:25.776Z,1.03
2018-01-29T16:00:53.887Z,1.00
2018-01-29T16:03:21.932Z,1.43
2018-01-29T16:05:50.021Z,1.10
2018-01-29T16:08:18.113Z,1.13
2018-01-29T16:10:46.198Z,1.10
2018-01-29T16:13:15.399Z,1.17
2018-01-29T16:15:43.398Z,1.13
2018-01-29T16:18:11.830Z,1.40
2018-01-29T16:20:40.053Z,0.90
2018-01-29T16:23:08.109Z,1.07
2018-01-29T16:25:36.160Z,1.50
2018-01-29T16:28:04.234Z,0.83
2018-01-29T16:30:32.261Z,1.27
2018-01-29T16:33:00.329Z,0.80
2018-01-29T16:35:28.504Z,1.17
2018-01-29T16:37:56.695Z,1.17
2018-01-29T16:40:24.715Z,1.27
2018-01-29T16:42:54.178Z,1.00
2018-01-29T16:45:22.264Z,1.17
2018-01-29T16:47:50.347Z,1.67
2018-01-29T16:50:18.405Z,1.40
2018-01-29T16:52:47.460Z,0.87
2018-01-29T16:55:15.496Z,1.07
2018-01-29T16:57:43.541Z,1.30
2018-01-29T17:00:11.599Z,1.30
2018-01-29T17:02:39.617Z,1.70
2018-01-29T17:05:07.685Z,1.53
2018-01-29T17:07:35.764Z,1.87
2018-01-29T17:10:03.797Z,1.50
2018-01-29T17:12:31.933Z,1.80
2018-01-29T17:15:00.065Z,1.00
2018-01-29T17:17:28.147Z,1.43
2018-01-29T17:19:56.213Z,2.03
2018-01-29T17:22:24.236Z,1.70
2018-01-29T17:24:52.312Z,1.20
2018-01-29T17:27:20.463Z,1.60
2018-01-29T17:29:48.614Z,1.83
2018-01-29T17:32:16.697Z,1.53
2018-01-29T17:34:44.801Z,1.47
2018-01-29T17:37:12.819Z,1.50
2018-01-29T17:39:40.874Z,1.40
2018-01-29T17:42:08.934Z,1.90
2018-01-29T17:44:37.002Z,1.60
2018-01-29T17:47:05.089Z,1.80
2018-01-29T17:49:33.151Z,2.70
2018-01-29T17:52:01.193Z,1.80
2018-01-29T17:54:29.270Z,2.03
2018-01-29T17:56:57.349Z,1.43
2018-01-29T17:59:25.407Z,1.67
2018-01-29T18:01:53.506Z,1.40
2018-01-29T18:04:21.567Z,1.50
2018-01-29T18:06:49.598Z,1.87
2018-01-29T18:09:17.686Z,1.57
2018-01-29T18:11:45.726Z,1.10
2018-01-29T18:14:13.779Z,1.37
2018-01-29T18:16:41.843Z,1.43
2018-01-29T18:19:09.877Z,1.67
2018-01-29T18:21:39.012Z,1.70
2018-01-29T18:24:08.068Z,1.40
2018-01-29T18:26:36.143Z,1.63
2018-01-29T18:29:04.184Z,1.50
2018-01-29T18:31:32.239Z,1.47
2018-01-29T18:34:01.389Z,1.60
2018-01-29T18:36:29.429Z,1.37
2018-01-29T18:38:57.776Z,1.50
2018-01-29T18:41:25.910Z,1.33
2018-01-29T18:43:53.989Z,1.10
2018-01-29T18:46:22.082Z,1.30
2018-01-29T18:48:50.125Z,0.90
2018-01-29T18:51:18.185Z,1.50
2018-01-29T18:53:46.289Z,1.37
2018-01-29T18:56:14.317Z,1.17
2018-01-29T18:58:42.423Z,1.40
2018-01-29T19:01:12.264Z,1.67
2018-01-29T19:03:40.278Z,1.43
2018-01-29T19:06:08.415Z,1.27
2018-01-29T19:08:36.477Z,1.90
2018-01-29T19:11:04.569Z,1.40
2018-01-29T19:13:32.620Z,1.40
2018-01-29T19:16:00.719Z,1.30
2018-01-29T19:18:28.787Z,1.23
2018-01-29T19:20:56.867Z,1.93
2018-01-29T19:23:24.966Z,1.70
2018-01-29T19:25:53.058Z,1.50
2018-01-29T19:28:22.200Z,1.50
2018-01-29T19:30:50.463Z,1.27
2018-01-29T19:33:18.544Z,1.48
2018-01-29T19:35:46.836Z,1.77
2018-01-29T19:38:14.957Z,1.35
2018-01-29T19:40:43.246Z,1.30
2018-01-29T19:43:11.681Z,1.60
2018-01-29T19:45:39.913Z,1.20
2018-01-29T19:48:07.994Z,1.30
2018-01-29T19:50:40.120Z,1.47
2018-01-29T19:53:08.230Z,1.87
2018-01-29T19:55:36.313Z,1.80
2018-01-29T19:58:04.359Z,1.60
2018-01-29T20:00:32.461Z,1.43
2018-01-29T20:03:00.538Z,1.53
2018-01-29T20:05:28.602Z,1.37
2018-01-29T20:07:56.642Z,1.80
2018-01-29T20:10:24.680Z,1.73
2018-01-29T20:12:53.854Z,1.30
2018-01-29T20:15:21.920Z,1.43
2018-01-29T20:17:49.966Z,1.30
2018-01-29T20:20:18.048Z,1.10
2018-01-29T20:22:46.173Z,1.57
2018-01-29T20:25:14.213Z,1.50
2018-01-29T20:27:42.234Z,1.40
2018-01-29T20:30:10.347Z,1.33
2018-01-29T20:32:38.417Z,1.60
2018-01-29T20:35:06.473Z,1.30
2018-01-29T20:37:34.901Z,1.37
2018-01-29T20:40:03.042Z,1.30
2018-01-29T20:42:31.314Z,1.40
2018-01-29T20:45:00.679Z,1.30
2018-01-29T20:47:28.697Z,1.50
2018-01-29T20:49:56.813Z,1.27
2018-01-29T20:52:24.854Z,1.40
2018-01-29T20:54:52.921Z,1.17
2018-01-29T20:57:22.058Z,1.60
2018-01-29T20:59:50.175Z,1.60
2018-01-29T21:02:18.264Z,1.33
2018-01-29T21:04:47.339Z,1.40
2018-01-29T21:07:15.430Z,1.40
2018-01-29T21:09:43.528Z,1.73
2018-01-29T21:12:11.607Z,1.70
2018-01-29T21:14:39.688Z,1.58
2018-01-29T21:17:07.773Z,1.93
2018-01-29T21:19:38.027Z,1.50
2018-01-29T21:22:06.093Z,1.75
2018-01-29T21:24:34.268Z,1.80
2018-01-29T21:27:02.346Z,1.57
2018-01-29T21:29:30.463Z,1.40
2018-01-29T21:31:58.495Z,1.90
2018-01-29T21:34:26.785Z,1.60
2018-01-29T21:36:54.885Z,1.70
2018-01-29T21:39:22.966Z,1.93
2018-01-29T21:41:51.003Z,1.47
2018-01-29T21:44:19.120Z,1.70
2018-01-29T21:46:47.172Z,1.60
2018-01-29T21:49:15.230Z,2.10
2018-01-29T21:51:43.385Z,2.00
2018-01-29T21:54:11.616Z,1.57
2018-01-29T21:56:39.700Z,1.92
2018-01-29T21:59:07.772Z,1.75
2018-01-29T22:01:35.809Z,2.00
2018-01-29T22:04:04.118Z,1.65
2018-01-29T22:06:32.206Z,1.90
2018-01-29T22:09:00.285Z,2.08
2018-01-29T22:11:28.341Z,1.50
2018-01-29T22:13:56.462Z,2.08
2018-01-29T22:16:24.567Z,1.53
2018-01-29T22:18:52.638Z,1.37
2018-01-29T22:21:20.701Z,1.77
2018-01-29T22:23:48.766Z,2.10
2018-01-29T22:26:16.866Z,1.50
2018-01-29T22:28:44.967Z,1.90
2018-01-29T22:31:13.055Z,1.85
2018-01-29T22:33:41.069Z,1.60
2018-01-29T22:36:09.109Z,1.80
2018-01-29T22:38:37.148Z,1.80
2018-01-29T22:41:05.212Z,1.20
2018-01-29T22:43:33.265Z,1.67
2018-01-29T22:46:01.272Z,2.12
2018-01-29T22:48:30.338Z,2.40
2018-01-29T22:50:59.399Z,1.73
2018-01-29T22:53:27.433Z,1.85
2018-01-29T22:55:55.501Z,1.30
2018-01-29T22:58:23.536Z,2.10
2018-01-29T23:00:51.680Z,1.70
2018-01-29T23:03:19.720Z,1.93
2018-01-29T23:05:47.729Z,1.50
2018-01-29T23:08:15.780Z,1.10
2018-01-29T23:10:43.849Z,0.90
2018-01-29T23:13:11.907Z,0.50
2018-01-29T23:15:39.937Z,0.80
2018-01-29T23:18:08.051Z,0.80
2018-01-29T23:20:36.150Z,0.70
2018-01-29T23:23:04.225Z,0.97
2018-01-29T23:25:32.285Z,0.50
2018-01-29T23:28:00.326Z,1.40
2018-01-29T23:30:28.373Z,1.70
2018-01-29T23:32:56.460Z,0.90
2018-01-29T23:35:24.522Z,1.62
2018-01-29T23:37:52.577Z,1.12
2018-01-29T23:40:20.625Z,1.40
2018-01-29T23:42:48.653Z,1.23
2018-01-29T23:45:16.716Z,1.58
2018-01-29T23:47:44.756Z,1.60
2018-01-29T23:50:12.840Z,1.40
2018-01-29T23:52:40.919Z,1.85
2018-01-29T23:55:08.939Z,2.10
2018-01-29T23:57:36.997Z,2.45
